Terminal Aerodrome Forecast
Issued by NWS

Home | Current Version | Previous Version | Text Only | Print | Product List | Glossary On
Versions: 1 2 3 4 5 6 7 8 9 10 11 12 13 14 15 16 17 18 19 20 21 22 23 24 25 26 27 28 29 30 31 32 33 34 35
000
FTUS44 KHGX 251729
TAFIAH
TAF
KIAH 251729Z 2518/2624 17010KT P6SM SCT035 BKN180
     FM252100 15012KT P6SM FEW040 BKN180
     FM260600 16004KT P6SM SCT015 BKN180
     FM261000 14002KT P6SM SCT030
      TEMPO 2612/2614 BKN025
     FM261500 17006KT P6SM SCT030=

USA.gov is the U.S. government's official web portal to all federal, state and local government web resources and services.